sensor_id;sensor_type;location;lat;lon;timestamp;P1;durP1;ratioP1;P2;durP2;ratioP2
25717;SDS011;13574;52.040;5.692;2022-12-18T00:01:31;77.53;;;28.80;;
25717;SDS011;13574;52.040;5.692;2022-12-18T00:03:59;82.85;;;29.70;;
25717;SDS011;13574;52.040;5.692;2022-12-18T00:06:26;82.63;;;29.23;;
25717;SDS011;13574;52.040;5.692;2022-12-18T00:08:54;77.72;;;28.27;;
25717;SDS011;13574;52.040;5.692;2022-12-18T00:11:22;79.50;;;28.50;;
25717;SDS011;13574;52.040;5.692;2022-12-18T00:13:50;82.30;;;28.88;;
25717;SDS011;13574;52.040;5.692;2022-12-18T00:16:17;87.35;;;30.33;;
25717;SDS011;13574;52.040;5.692;2022-12-18T00:18:46;88.75;;;30.10;;
25717;SDS011;13574;52.040;5.692;2022-12-18T00:21:13;79.88;;;28.27;;
25717;SDS011;13574;52.040;5.692;2022-12-18T00:23:40;83.43;;;30.38;;
25717;SDS011;13574;52.040;5.692;2022-12-18T00:26:09;85.47;;;28.33;;
25717;SDS011;13574;52.040;5.692;2022-12-18T00:28:40;70.93;;;26.80;;
25717;SDS011;13574;52.040;5.692;2022-12-18T00:31:07;71.63;;;28.90;;
25717;SDS011;13574;52.040;5.692;2022-12-18T00:33:35;75.38;;;27.90;;
25717;SDS011;13574;52.040;5.692;2022-12-18T00:36:02;74.40;;;26.50;;
25717;SDS011;13574;52.040;5.692;2022-12-18T00:38:34;68.85;;;27.58;;
25717;SDS011;13574;52.040;5.692;2022-12-18T00:41:00;75.35;;;29.25;;
25717;SDS011;13574;52.040;5.692;2022-12-18T00:43:26;72.32;;;27.90;;
25717;SDS011;13574;52.040;5.692;2022-12-18T00:45:52;75.95;;;27.08;;
25717;SDS011;13574;52.040;5.692;2022-12-18T00:48:18;71.70;;;27.40;;
25717;SDS011;13574;52.040;5.692;2022-12-18T00:50:43;75.90;;;26.85;;
25717;SDS011;13574;52.040;5.692;2022-12-18T00:53:09;72.75;;;25.70;;
25717;SDS011;13574;52.040;5.692;2022-12-18T00:55:36;71.75;;;26.80;;
25717;SDS011;13574;52.040;5.692;2022-12-18T00:58:03;65.80;;;25.73;;
25717;SDS011;13574;52.040;5.692;2022-12-18T01:00:29;75.13;;;27.27;;
25717;SDS011;13574;52.040;5.692;2022-12-18T01:02:55;68.80;;;26.92;;
25717;SDS011;13574;52.040;5.692;2022-12-18T01:05:20;76.03;;;28.08;;
25717;SDS011;13574;52.040;5.692;2022-12-18T01:07:46;71.05;;;27.30;;
25717;SDS011;13574;52.040;5.692;2022-12-18T01:10:12;81.40;;;28.17;;
25717;SDS011;13574;52.040;5.692;2022-12-18T01:12:38;74.07;;;26.88;;
25717;SDS011;13574;52.040;5.692;2022-12-18T01:15:05;78.07;;;27.33;;
25717;SDS011;13574;52.040;5.692;2022-12-18T01:17:32;74.45;;;28.42;;
25717;SDS011;13574;52.040;5.692;2022-12-18T01:19:58;68.20;;;26.67;;
25717;SDS011;13574;52.040;5.692;2022-12-18T01:22:24;68.30;;;25.95;;
25717;SDS011;13574;52.040;5.692;2022-12-18T01:24:49;67.05;;;27.40;;
25717;SDS011;13574;52.040;5.692;2022-12-18T01:27:15;79.75;;;28.77;;
25717;SDS011;13574;52.040;5.692;2022-12-18T01:29:41;69.82;;;27.42;;
25717;SDS011;13574;52.040;5.692;2022-12-18T01:32:07;72.68;;;26.83;;
25717;SDS011;13574;52.040;5.692;2022-12-18T01:34:34;71.30;;;26.42;;
25717;SDS011;13574;52.040;5.692;2022-12-18T01:37:02;60.97;;;23.40;;
25717;SDS011;13574;52.040;5.692;2022-12-18T01:39:29;72.03;;;26.70;;
25717;SDS011;13574;52.040;5.692;2022-12-18T01:41:55;67.43;;;26.60;;
25717;SDS011;13574;52.040;5.692;2022-12-18T01:47:20;59.92;;;25.08;;
25717;SDS011;13574;52.040;5.692;2022-12-18T01:49:50;64.75;;;25.92;;
25717;SDS011;13574;52.040;5.692;2022-12-18T01:52:16;62.67;;;24.38;;
25717;SDS011;13574;52.040;5.692;2022-12-18T01:54:43;62.55;;;23.92;;
25717;SDS011;13574;52.040;5.692;2022-12-18T01:57:10;58.75;;;24.02;;
25717;SDS011;13574;52.040;5.692;2022-12-18T01:59:36;57.78;;;23.88;;
25717;SDS011;13574;52.040;5.692;2022-12-18T02:02:03;56.67;;;23.60;;
25717;SDS011;13574;52.040;5.692;2022-12-18T02:04:29;59.92;;;24.42;;
25717;SDS011;13574;52.040;5.692;2022-12-18T02:06:58;55.05;;;23.30;;
25717;SDS011;13574;52.040;5.692;2022-12-18T02:09:36;58.05;;;22.70;;
25717;SDS011;13574;52.040;5.692;2022-12-18T02:12:13;53.08;;;22.52;;
25717;SDS011;13574;52.040;5.692;2022-12-18T02:14:45;55.97;;;22.33;;
25717;SDS011;13574;52.040;5.692;2022-12-18T02:17:20;53.58;;;22.95;;
25717;SDS011;13574;52.040;5.692;2022-12-18T02:28:41;50.53;;;21.42;;
25717;SDS011;13574;52.040;5.692;2022-12-18T02:31:30;52.75;;;21.48;;
25717;SDS011;13574;52.040;5.692;2022-12-18T02:34:01;49.10;;;21.60;;
25717;SDS011;13574;52.040;5.692;2022-12-18T02:36:29;47.53;;;20.48;;
25717;SDS011;13574;52.040;5.692;2022-12-18T02:38:57;50.08;;;20.77;;
25717;SDS011;13574;52.040;5.692;2022-12-18T02:41:25;51.72;;;22.52;;
25717;SDS011;13574;52.040;5.692;2022-12-18T02:43:56;48.83;;;21.17;;
25717;SDS011;13574;52.040;5.692;2022-12-18T02:55:01;48.60;;;21.83;;
25717;SDS011;13574;52.040;5.692;2022-12-18T02:57:44;54.72;;;21.65;;
25717;SDS011;13574;52.040;5.692;2022-12-18T03:00:42;55.08;;;21.33;;
25717;SDS011;13574;52.040;5.692;2022-12-18T03:03:27;51.05;;;21.17;;
25717;SDS011;13574;52.040;5.692;2022-12-18T03:06:07;47.13;;;20.42;;
25717;SDS011;13574;52.040;5.692;2022-12-18T03:08:38;49.72;;;20.55;;
25717;SDS011;13574;52.040;5.692;2022-12-18T03:11:08;45.13;;;20.27;;
25717;SDS011;13574;52.040;5.692;2022-12-18T03:13:46;52.17;;;22.10;;
25717;SDS011;13574;52.040;5.692;2022-12-18T03:16:20;50.75;;;21.95;;
25717;SDS011;13574;52.040;5.692;2022-12-18T03:19:00;52.55;;;21.10;;
25717;SDS011;13574;52.040;5.692;2022-12-18T03:21:33;47.55;;;20.40;;
25717;SDS011;13574;52.040;5.692;2022-12-18T03:24:07;48.50;;;21.10;;
25717;SDS011;13574;52.040;5.692;2022-12-18T03:26:36;50.67;;;20.50;;
25717;SDS011;13574;52.040;5.692;2022-12-18T03:29:07;52.08;;;21.15;;
25717;SDS011;13574;52.040;5.692;2022-12-18T03:31:39;51.92;;;19.95;;
25717;SDS011;13574;52.040;5.692;2022-12-18T03:34:15;47.83;;;21.00;;
25717;SDS011;13574;52.040;5.692;2022-12-18T03:36:47;39.47;;;18.60;;
25717;SDS011;13574;52.040;5.692;2022-12-18T03:39:13;45.15;;;20.83;;
25717;SDS011;13574;52.040;5.692;2022-12-18T03:52:25;44.75;;;20.52;;
25717;SDS011;13574;52.040;5.692;2022-12-18T03:54:55;48.42;;;19.70;;
25717;SDS011;13574;52.040;5.692;2022-12-18T03:57:24;43.03;;;19.63;;
25717;SDS011;13574;52.040;5.692;2022-12-18T03:59:54;44.10;;;19.60;;
25717;SDS011;13574;52.040;5.692;2022-12-18T04:02:31;43.10;;;20.17;;
25717;SDS011;13574;52.040;5.692;2022-12-18T04:05:01;40.15;;;18.90;;
25717;SDS011;13574;52.040;5.692;2022-12-18T04:07:29;38.72;;;18.48;;
25717;SDS011;13574;52.040;5.692;2022-12-18T04:09:56;42.55;;;18.55;;
25717;SDS011;13574;52.040;5.692;2022-12-18T04:12:28;40.35;;;18.25;;
25717;SDS011;13574;52.040;5.692;2022-12-18T04:14:54;45.75;;;19.15;;
25717;SDS011;13574;52.040;5.692;2022-12-18T04:17:20;43.40;;;18.95;;
25717;SDS011;13574;52.040;5.692;2022-12-18T04:19:46;41.38;;;18.13;;
25717;SDS011;13574;52.040;5.692;2022-12-18T04:22:12;39.22;;;17.73;;
25717;SDS011;13574;52.040;5.692;2022-12-18T04:24:38;40.45;;;18.20;;
25717;SDS011;13574;52.040;5.692;2022-12-18T04:27:03;37.03;;;18.60;;
25717;SDS011;13574;52.040;5.692;2022-12-18T04:29:29;44.22;;;17.95;;
25717;SDS011;13574;52.040;5.692;2022-12-18T04:31:55;41.25;;;18.48;;
25717;SDS011;13574;52.040;5.692;2022-12-18T04:34:21;36.65;;;17.10;;
25717;SDS011;13574;52.040;5.692;2022-12-18T04:36:47;41.53;;;17.92;;
25717;SDS011;13574;52.040;5.692;2022-12-18T04:39:13;37.00;;;17.35;;
25717;SDS011;13574;52.040;5.692;2022-12-18T04:41:39;42.97;;;19.27;;
25717;SDS011;13574;52.040;5.692;2022-12-18T04:44:04;39.60;;;17.73;;
25717;SDS011;13574;52.040;5.692;2022-12-18T04:46:30;35.83;;;17.02;;
25717;SDS011;13574;52.040;5.692;2022-12-18T04:48:56;39.60;;;17.95;;
25717;SDS011;13574;52.040;5.692;2022-12-18T04:51:21;33.28;;;16.92;;
25717;SDS011;13574;52.040;5.692;2022-12-18T04:53:47;40.78;;;17.58;;
25717;SDS011;13574;52.040;5.692;2022-12-18T04:56:13;33.90;;;16.45;;
25717;SDS011;13574;52.040;5.692;2022-12-18T04:58:40;40.17;;;17.05;;
25717;SDS011;13574;52.040;5.692;2022-12-18T05:01:08;34.33;;;16.20;;
25717;SDS011;13574;52.040;5.692;2022-12-18T05:03:34;37.90;;;16.90;;
25717;SDS011;13574;52.040;5.692;2022-12-18T05:06:01;35.88;;;16.70;;
25717;SDS011;13574;52.040;5.692;2022-12-18T05:08:28;33.83;;;16.70;;
25717;SDS011;13574;52.040;5.692;2022-12-18T05:11:00;34.70;;;16.38;;
25717;SDS011;13574;52.040;5.692;2022-12-18T05:13:32;37.83;;;16.35;;
25717;SDS011;13574;52.040;5.692;2022-12-18T05:15:58;30.15;;;15.30;;
25717;SDS011;13574;52.040;5.692;2022-12-18T05:18:27;32.25;;;15.55;;
25717;SDS011;13574;52.040;5.692;2022-12-18T05:20:53;31.55;;;14.73;;
25717;SDS011;13574;52.040;5.692;2022-12-18T05:23:19;28.83;;;14.60;;
25717;SDS011;13574;52.040;5.692;2022-12-18T05:25:59;31.17;;;14.38;;
25717;SDS011;13574;52.040;5.692;2022-12-18T05:28:27;28.35;;;14.30;;
25717;SDS011;13574;52.040;5.692;2022-12-18T05:30:54;32.20;;;14.45;;
25717;SDS011;13574;52.040;5.692;2022-12-18T05:33:22;36.00;;;15.48;;
25717;SDS011;13574;52.040;5.692;2022-12-18T05:35:53;31.88;;;15.57;;
25717;SDS011;13574;52.040;5.692;2022-12-18T05:38:20;31.50;;;15.35;;
25717;SDS011;13574;52.040;5.692;2022-12-18T05:40:47;33.40;;;15.23;;
25717;SDS011;13574;52.040;5.692;2022-12-18T05:43:13;28.75;;;14.02;;
25717;SDS011;13574;52.040;5.692;2022-12-18T05:45:39;31.63;;;15.82;;
25717;SDS011;13574;52.040;5.692;2022-12-18T05:48:06;28.17;;;14.52;;
25717;SDS011;13574;52.040;5.692;2022-12-18T05:50:36;31.52;;;15.13;;
25717;SDS011;13574;52.040;5.692;2022-12-18T05:53:03;32.88;;;15.52;;
25717;SDS011;13574;52.040;5.692;2022-12-18T05:55:32;32.53;;;16.17;;
25717;SDS011;13574;52.040;5.692;2022-12-18T05:58:02;25.00;;;11.25;;
25717;SDS011;13574;52.040;5.692;2022-12-18T06:00:29;24.67;;;11.93;;
25717;SDS011;13574;52.040;5.692;2022-12-18T06:02:57;34.10;;;15.70;;
25717;SDS011;13574;52.040;5.692;2022-12-18T06:05:22;37.53;;;16.75;;
25717;SDS011;13574;52.040;5.692;2022-12-18T06:07:48;35.72;;;17.30;;
25717;SDS011;13574;52.040;5.692;2022-12-18T06:10:14;31.90;;;14.82;;
25717;SDS011;13574;52.040;5.692;2022-12-18T06:12:39;32.22;;;15.80;;
25717;SDS011;13574;52.040;5.692;2022-12-18T06:15:05;29.88;;;15.55;;
25717;SDS011;13574;52.040;5.692;2022-12-18T06:17:31;33.78;;;17.17;;
25717;SDS011;13574;52.040;5.692;2022-12-18T06:19:58;42.22;;;17.30;;
25717;SDS011;13574;52.040;5.692;2022-12-18T06:22:24;36.70;;;16.15;;
25717;SDS011;13574;52.040;5.692;2022-12-18T06:24:51;30.92;;;16.30;;
25717;SDS011;13574;52.040;5.692;2022-12-18T06:27:16;32.65;;;16.27;;
25717;SDS011;13574;52.040;5.692;2022-12-18T06:29:42;34.47;;;16.35;;
25717;SDS011;13574;52.040;5.692;2022-12-18T06:32:08;34.47;;;16.48;;
25717;SDS011;13574;52.040;5.692;2022-12-18T06:34:33;33.22;;;15.55;;
25717;SDS011;13574;52.040;5.692;2022-12-18T06:37:01;36.58;;;17.42;;
25717;SDS011;13574;52.040;5.692;2022-12-18T06:39:27;32.90;;;17.50;;
25717;SDS011;13574;52.040;5.692;2022-12-18T06:41:53;35.10;;;17.30;;
25717;SDS011;13574;52.040;5.692;2022-12-18T06:44:19;33.75;;;16.25;;
25717;SDS011;13574;52.040;5.692;2022-12-18T06:46:44;35.00;;;16.95;;
25717;SDS011;13574;52.040;5.692;2022-12-18T06:49:10;38.13;;;17.45;;
25717;SDS011;13574;52.040;5.692;2022-12-18T06:51:36;33.30;;;16.45;;
25717;SDS011;13574;52.040;5.692;2022-12-18T06:54:02;31.85;;;16.50;;
25717;SDS011;13574;52.040;5.692;2022-12-18T06:56:27;33.72;;;17.38;;
25717;SDS011;13574;52.040;5.692;2022-12-18T06:58:53;37.72;;;17.40;;
25717;SDS011;13574;52.040;5.692;2022-12-18T07:01:20;37.13;;;16.88;;
25717;SDS011;13574;52.040;5.692;2022-12-18T07:03:46;31.35;;;15.38;;
25717;SDS011;13574;52.040;5.692;2022-12-18T07:06:13;32.22;;;16.38;;
25717;SDS011;13574;52.040;5.692;2022-12-18T07:08:40;39.22;;;17.50;;
25717;SDS011;13574;52.040;5.692;2022-12-18T07:11:06;34.38;;;16.85;;
25717;SDS011;13574;52.040;5.692;2022-12-18T07:13:32;33.92;;;15.93;;
25717;SDS011;13574;52.040;5.692;2022-12-18T07:16:05;32.80;;;16.92;;
25717;SDS011;13574;52.040;5.692;2022-12-18T07:18:34;36.30;;;17.05;;
25717;SDS011;13574;52.040;5.692;2022-12-18T07:21:04;29.05;;;15.02;;
25717;SDS011;13574;52.040;5.692;2022-12-18T07:23:31;33.78;;;16.60;;
25717;SDS011;13574;52.040;5.692;2022-12-18T07:26:00;30.63;;;16.15;;
25717;SDS011;13574;52.040;5.692;2022-12-18T07:28:30;30.08;;;16.35;;
25717;SDS011;13574;52.040;5.692;2022-12-18T07:30:56;29.25;;;14.95;;
25717;SDS011;13574;52.040;5.692;2022-12-18T07:33:22;32.17;;;15.88;;
25717;SDS011;13574;52.040;5.692;2022-12-18T07:35:48;30.42;;;16.35;;
25717;SDS011;13574;52.040;5.692;2022-12-18T07:38:13;29.38;;;14.90;;
25717;SDS011;13574;52.040;5.692;2022-12-18T07:40:39;31.80;;;16.38;;
25717;SDS011;13574;52.040;5.692;2022-12-18T07:43:04;28.48;;;15.18;;
25717;SDS011;13574;52.040;5.692;2022-12-18T07:45:30;35.42;;;16.45;;
25717;SDS011;13574;52.040;5.692;2022-12-18T07:47:55;35.08;;;17.33;;
25717;SDS011;13574;52.040;5.692;2022-12-18T07:50:21;28.95;;;15.60;;
25717;SDS011;13574;52.040;5.692;2022-12-18T07:52:47;33.53;;;16.05;;
25717;SDS011;13574;52.040;5.692;2022-12-18T07:55:12;30.92;;;15.80;;
25717;SDS011;13574;52.040;5.692;2022-12-18T07:57:38;28.17;;;14.63;;
25717;SDS011;13574;52.040;5.692;2022-12-18T08:00:04;28.63;;;14.52;;
25717;SDS011;13574;52.040;5.692;2022-12-18T08:02:30;31.02;;;15.02;;
25717;SDS011;13574;52.040;5.692;2022-12-18T08:04:56;28.42;;;15.07;;
25717;SDS011;13574;52.040;5.692;2022-12-18T08:07:23;33.95;;;15.52;;
25717;SDS011;13574;52.040;5.692;2022-12-18T08:09:48;31.95;;;15.48;;
25717;SDS011;13574;52.040;5.692;2022-12-18T08:12:14;26.35;;;14.00;;
25717;SDS011;13574;52.040;5.692;2022-12-18T08:14:39;27.50;;;13.45;;
25717;SDS011;13574;52.040;5.692;2022-12-18T08:17:08;28.73;;;13.63;;
25717;SDS011;13574;52.040;5.692;2022-12-18T08:19:34;29.15;;;14.55;;
25717;SDS011;13574;52.040;5.692;2022-12-18T08:22:00;29.75;;;14.23;;
25717;SDS011;13574;52.040;5.692;2022-12-18T08:24:28;28.00;;;14.15;;
25717;SDS011;13574;52.040;5.692;2022-12-18T08:26:59;27.40;;;13.68;;
25717;SDS011;13574;52.040;5.692;2022-12-18T08:29:30;25.30;;;12.85;;
25717;SDS011;13574;52.040;5.692;2022-12-18T08:32:11;25.88;;;12.77;;
25717;SDS011;13574;52.040;5.692;2022-12-18T08:34:36;27.15;;;14.02;;
25717;SDS011;13574;52.040;5.692;2022-12-18T08:37:03;27.90;;;13.00;;
25717;SDS011;13574;52.040;5.692;2022-12-18T08:39:31;23.70;;;12.05;;
25717;SDS011;13574;52.040;5.692;2022-12-18T08:41:56;25.60;;;12.88;;
25717;SDS011;13574;52.040;5.692;2022-12-18T08:44:41;23.17;;;12.32;;
25717;SDS011;13574;52.040;5.692;2022-12-18T08:47:07;23.63;;;12.35;;
25717;SDS011;13574;52.040;5.692;2022-12-18T08:49:33;25.50;;;13.00;;
25717;SDS011;13574;52.040;5.692;2022-12-18T08:52:04;23.90;;;11.93;;
25717;SDS011;13574;52.040;5.692;2022-12-18T08:54:30;22.52;;;11.10;;
25717;SDS011;13574;52.040;5.692;2022-12-18T08:56:56;21.45;;;11.65;;
25717;SDS011;13574;52.040;5.692;2022-12-18T08:59:21;24.45;;;12.05;;
25717;SDS011;13574;52.040;5.692;2022-12-18T09:01:48;20.83;;;10.90;;
25717;SDS011;13574;52.040;5.692;2022-12-18T09:04:17;22.15;;;11.32;;
25717;SDS011;13574;52.040;5.692;2022-12-18T09:06:45;24.73;;;11.30;;
25717;SDS011;13574;52.040;5.692;2022-12-18T09:09:11;24.80;;;12.07;;
25717;SDS011;13574;52.040;5.692;2022-12-18T09:11:37;21.65;;;11.80;;
25717;SDS011;13574;52.040;5.692;2022-12-18T09:14:03;22.33;;;11.38;;
25717;SDS011;13574;52.040;5.692;2022-12-18T09:16:29;24.50;;;12.30;;
25717;SDS011;13574;52.040;5.692;2022-12-18T09:18:56;19.15;;;10.55;;
25717;SDS011;13574;52.040;5.692;2022-12-18T09:21:35;28.60;;;11.18;;
25717;SDS011;13574;52.040;5.692;2022-12-18T09:24:00;22.35;;;11.55;;
25717;SDS011;13574;52.040;5.692;2022-12-18T09:26:29;20.10;;;11.30;;
25717;SDS011;13574;52.040;5.692;2022-12-18T09:28:55;21.80;;;10.85;;
25717;SDS011;13574;52.040;5.692;2022-12-18T09:31:24;20.50;;;11.10;;
25717;SDS011;13574;52.040;5.692;2022-12-18T09:33:50;22.27;;;11.23;;
25717;SDS011;13574;52.040;5.692;2022-12-18T09:36:16;26.55;;;11.38;;
25717;SDS011;13574;52.040;5.692;2022-12-18T09:38:43;20.58;;;10.77;;
25717;SDS011;13574;52.040;5.692;2022-12-18T09:43:54;21.05;;;10.27;;
25717;SDS011;13574;52.040;5.692;2022-12-18T09:46:27;21.95;;;10.88;;
25717;SDS011;13574;52.040;5.692;2022-12-18T09:49:05;21.40;;;10.10;;
25717;SDS011;13574;52.040;5.692;2022-12-18T09:51:37;22.27;;;10.93;;
25717;SDS011;13574;52.040;5.692;2022-12-18T09:54:20;21.20;;;10.82;;
25717;SDS011;13574;52.040;5.692;2022-12-18T09:56:51;21.48;;;10.35;;
25717;SDS011;13574;52.040;5.692;2022-12-18T09:59:24;18.15;;;9.88;;
25717;SDS011;13574;52.040;5.692;2022-12-18T10:01:54;19.55;;;9.65;;
25717;SDS011;13574;52.040;5.692;2022-12-18T10:04:20;19.90;;;9.88;;
25717;SDS011;13574;52.040;5.692;2022-12-18T10:07:09;17.20;;;9.98;;
25717;SDS011;13574;52.040;5.692;2022-12-18T10:09:44;18.05;;;9.70;;
25717;SDS011;13574;52.040;5.692;2022-12-18T10:12:31;18.83;;;9.70;;
25717;SDS011;13574;52.040;5.692;2022-12-18T10:20:46;19.20;;;9.05;;
25717;SDS011;13574;52.040;5.692;2022-12-18T10:23:35;19.38;;;10.13;;
25717;SDS011;13574;52.040;5.692;2022-12-18T10:26:36;17.25;;;9.30;;
25717;SDS011;13574;52.040;5.692;2022-12-18T10:29:04;19.35;;;9.65;;
25717;SDS011;13574;52.040;5.692;2022-12-18T10:31:37;19.80;;;10.52;;
25717;SDS011;13574;52.040;5.692;2022-12-18T10:34:02;18.52;;;9.82;;
25717;SDS011;13574;52.040;5.692;2022-12-18T10:36:28;18.55;;;9.73;;
25717;SDS011;13574;52.040;5.692;2022-12-18T10:38:55;19.73;;;9.82;;
25717;SDS011;13574;52.040;5.692;2022-12-18T10:41:51;17.83;;;10.05;;
25717;SDS011;13574;52.040;5.692;2022-12-18T10:44:21;19.17;;;9.48;;
25717;SDS011;13574;52.040;5.692;2022-12-18T10:46:49;17.25;;;8.88;;
25717;SDS011;13574;52.040;5.692;2022-12-18T10:49:23;20.58;;;10.02;;
25717;SDS011;13574;52.040;5.692;2022-12-18T10:52:15;17.27;;;8.98;;
25717;SDS011;13574;52.040;5.692;2022-12-18T10:54:53;18.88;;;9.73;;
25717;SDS011;13574;52.040;5.692;2022-12-18T11:00:19;20.27;;;10.70;;
25717;SDS011;13574;52.040;5.692;2022-12-18T11:02:49;20.00;;;9.93;;
25717;SDS011;13574;52.040;5.692;2022-12-18T11:05:33;17.88;;;9.88;;
25717;SDS011;13574;52.040;5.692;2022-12-18T11:08:02;20.50;;;10.48;;
25717;SDS011;13574;52.040;5.692;2022-12-18T11:10:30;17.15;;;9.50;;
25717;SDS011;13574;52.040;5.692;2022-12-18T11:13:09;20.08;;;11.50;;
25717;SDS011;13574;52.040;5.692;2022-12-18T11:15:42;21.30;;;11.10;;
25717;SDS011;13574;52.040;5.692;2022-12-18T11:18:15;22.75;;;11.43;;
25717;SDS011;13574;52.040;5.692;2022-12-18T11:20:41;34.22;;;15.68;;
25717;SDS011;13574;52.040;5.692;2022-12-18T11:23:11;39.22;;;17.27;;
25717;SDS011;13574;52.040;5.692;2022-12-18T11:25:38;34.83;;;16.42;;
25717;SDS011;13574;52.040;5.692;2022-12-18T11:30:50;26.33;;;16.08;;
25717;SDS011;13574;52.040;5.692;2022-12-18T11:33:37;20.55;;;12.05;;
25717;SDS011;13574;52.040;5.692;2022-12-18T11:36:06;22.08;;;11.23;;
25717;SDS011;13574;52.040;5.692;2022-12-18T11:38:35;22.40;;;11.70;;
25717;SDS011;13574;52.040;5.692;2022-12-18T11:41:04;19.25;;;11.52;;
25717;SDS011;13574;52.040;5.692;2022-12-18T11:43:40;25.52;;;14.73;;
25717;SDS011;13574;52.040;5.692;2022-12-18T11:46:15;23.67;;;12.45;;
25717;SDS011;13574;52.040;5.692;2022-12-18T11:49:06;19.55;;;10.68;;
25717;SDS011;13574;52.040;5.692;2022-12-18T11:51:41;19.25;;;10.77;;
25717;SDS011;13574;52.040;5.692;2022-12-18T11:54:14;22.45;;;10.57;;
25717;SDS011;13574;52.040;5.692;2022-12-18T11:56:48;21.95;;;13.93;;
25717;SDS011;13574;52.040;5.692;2022-12-18T11:59:33;19.60;;;10.85;;
25717;SDS011;13574;52.040;5.692;2022-12-18T12:13:36;20.42;;;11.23;;
25717;SDS011;13574;52.040;5.692;2022-12-18T12:16:31;21.52;;;10.50;;
25717;SDS011;13574;52.040;5.692;2022-12-18T12:19:02;22.45;;;11.23;;
25717;SDS011;13574;52.040;5.692;2022-12-18T12:21:41;18.17;;;10.15;;
25717;SDS011;13574;52.040;5.692;2022-12-18T12:31:53;17.95;;;11.45;;
25717;SDS011;13574;52.040;5.692;2022-12-18T12:34:41;26.45;;;13.82;;
25717;SDS011;13574;52.040;5.692;2022-12-18T12:39:55;21.80;;;12.18;;
25717;SDS011;13574;52.040;5.692;2022-12-18T12:42:35;26.60;;;12.43;;
25717;SDS011;13574;52.040;5.692;2022-12-18T12:46:11;24.27;;;13.35;;
25717;SDS011;13574;52.040;5.692;2022-12-18T12:51:11;19.13;;;11.05;;
25717;SDS011;13574;52.040;5.692;2022-12-18T12:53:49;21.80;;;12.57;;
25717;SDS011;13574;52.040;5.692;2022-12-18T12:56:24;22.67;;;11.40;;
25717;SDS011;13574;52.040;5.692;2022-12-18T13:09:24;20.52;;;11.25;;
25717;SDS011;13574;52.040;5.692;2022-12-18T13:11:49;24.67;;;11.07;;
25717;SDS011;13574;52.040;5.692;2022-12-18T13:14:37;20.48;;;11.02;;
25717;SDS011;13574;52.040;5.692;2022-12-18T13:19:50;26.73;;;12.10;;
25717;SDS011;13574;52.040;5.692;2022-12-18T13:25:02;19.35;;;10.95;;
25717;SDS011;13574;52.040;5.692;2022-12-18T13:38:21;21.23;;;10.95;;
25717;SDS011;13574;52.040;5.692;2022-12-18T13:40:57;20.13;;;10.73;;
25717;SDS011;13574;52.040;5.692;2022-12-18T13:43:26;19.75;;;11.32;;
25717;SDS011;13574;52.040;5.692;2022-12-18T13:46:04;21.65;;;10.90;;
25717;SDS011;13574;52.040;5.692;2022-12-18T13:48:41;19.42;;;10.75;;
25717;SDS011;13574;52.040;5.692;2022-12-18T13:51:16;23.83;;;11.02;;
25717;SDS011;13574;52.040;5.692;2022-12-18T13:56:24;22.10;;;11.02;;
25717;SDS011;13574;52.040;5.692;2022-12-18T14:01:51;20.25;;;11.73;;
25717;SDS011;13574;52.040;5.692;2022-12-18T14:06:49;19.35;;;10.82;;
25717;SDS011;13574;52.040;5.692;2022-12-18T14:09:19;20.58;;;10.93;;
25717;SDS011;13574;52.040;5.692;2022-12-18T14:11:54;24.95;;;11.68;;
25717;SDS011;13574;52.040;5.692;2022-12-18T14:14:42;23.67;;;11.32;;
25717;SDS011;13574;52.040;5.692;2022-12-18T14:17:10;24.60;;;11.50;;
25717;SDS011;13574;52.040;5.692;2022-12-18T14:19:36;25.42;;;11.73;;
25717;SDS011;13574;52.040;5.692;2022-12-18T14:22:09;51.20;;;20.42;;
25717;SDS011;13574;52.040;5.692;2022-12-18T14:24:41;27.75;;;13.18;;
25717;SDS011;13574;52.040;5.692;2022-12-18T14:27:19;35.13;;;18.73;;
25717;SDS011;13574;52.040;5.692;2022-12-18T14:29:49;31.42;;;16.58;;
25717;SDS011;13574;52.040;5.692;2022-12-18T14:32:17;32.30;;;16.92;;
25717;SDS011;13574;52.040;5.692;2022-12-18T14:34:48;35.50;;;18.42;;
25717;SDS011;13574;52.040;5.692;2022-12-18T14:37:17;25.15;;;13.82;;
25717;SDS011;13574;52.040;5.692;2022-12-18T14:39:53;24.23;;;13.27;;
25717;SDS011;13574;52.040;5.692;2022-12-18T14:42:21;28.73;;;14.45;;
25717;SDS011;13574;52.040;5.692;2022-12-18T14:44:47;24.55;;;13.52;;
25717;SDS011;13574;52.040;5.692;2022-12-18T14:47:16;35.55;;;16.88;;
25717;SDS011;13574;52.040;5.692;2022-12-18T14:49:42;38.72;;;17.77;;
25717;SDS011;13574;52.040;5.692;2022-12-18T14:52:18;34.75;;;17.58;;
25717;SDS011;13574;52.040;5.692;2022-12-18T14:54:51;28.33;;;14.90;;
25717;SDS011;13574;52.040;5.692;2022-12-18T14:57:21;24.40;;;14.18;;
25717;SDS011;13574;52.040;5.692;2022-12-18T15:00:03;26.15;;;13.43;;
25717;SDS011;13574;52.040;5.692;2022-12-18T15:02:39;27.90;;;14.32;;
25717;SDS011;13574;52.040;5.692;2022-12-18T15:07:43;27.00;;;14.38;;
25717;SDS011;13574;52.040;5.692;2022-12-18T15:13:22;26.38;;;13.55;;
25717;SDS011;13574;52.040;5.692;2022-12-18T15:15:49;26.38;;;14.50;;
25717;SDS011;13574;52.040;5.692;2022-12-18T15:18:16;25.08;;;13.68;;
25717;SDS011;13574;52.040;5.692;2022-12-18T15:21:07;22.98;;;12.40;;
25717;SDS011;13574;52.040;5.692;2022-12-18T15:23:48;24.85;;;12.45;;
25717;SDS011;13574;52.040;5.692;2022-12-18T15:26:17;24.20;;;12.93;;
25717;SDS011;13574;52.040;5.692;2022-12-18T15:28:53;23.92;;;12.85;;
25717;SDS011;13574;52.040;5.692;2022-12-18T15:31:34;25.98;;;13.52;;
25717;SDS011;13574;52.040;5.692;2022-12-18T15:34:04;28.05;;;14.18;;
25717;SDS011;13574;52.040;5.692;2022-12-18T15:36:45;24.42;;;13.48;;
25717;SDS011;13574;52.040;5.692;2022-12-18T15:39:12;27.33;;;13.48;;
25717;SDS011;13574;52.040;5.692;2022-12-18T15:41:41;24.33;;;13.77;;
25717;SDS011;13574;52.040;5.692;2022-12-18T15:44:26;23.25;;;11.82;;
25717;SDS011;13574;52.040;5.692;2022-12-18T15:46:52;23.75;;;12.57;;
25717;SDS011;13574;52.040;5.692;2022-12-18T15:49:21;26.77;;;13.30;;
25717;SDS011;13574;52.040;5.692;2022-12-18T15:51:48;25.77;;;13.05;;
25717;SDS011;13574;52.040;5.692;2022-12-18T15:54:18;23.85;;;12.65;;
25717;SDS011;13574;52.040;5.692;2022-12-18T15:57:04;25.92;;;13.10;;
25717;SDS011;13574;52.040;5.692;2022-12-18T15:59:48;27.02;;;14.07;;
25717;SDS011;13574;52.040;5.692;2022-12-18T16:02:16;25.50;;;13.57;;
25717;SDS011;13574;52.040;5.692;2022-12-18T16:04:43;24.25;;;13.18;;
25717;SDS011;13574;52.040;5.692;2022-12-18T16:07:10;31.92;;;14.15;;
25717;SDS011;13574;52.040;5.692;2022-12-18T16:09:36;25.80;;;13.90;;
25717;SDS011;13574;52.040;5.692;2022-12-18T16:12:03;27.85;;;14.10;;
25717;SDS011;13574;52.040;5.692;2022-12-18T16:14:30;30.35;;;14.10;;
25717;SDS011;13574;52.040;5.692;2022-12-18T16:16:58;23.83;;;12.85;;
25717;SDS011;13574;52.040;5.692;2022-12-18T16:19:25;26.23;;;13.57;;
25717;SDS011;13574;52.040;5.692;2022-12-18T16:21:55;27.15;;;14.45;;
25717;SDS011;13574;52.040;5.692;2022-12-18T16:24:22;27.65;;;14.15;;
25717;SDS011;13574;52.040;5.692;2022-12-18T16:26:50;27.38;;;14.27;;
25717;SDS011;13574;52.040;5.692;2022-12-18T16:29:17;25.80;;;14.05;;
25717;SDS011;13574;52.040;5.692;2022-12-18T16:31:44;27.13;;;14.43;;